createdAt,value
2019-03-16T00:02:18.425Z,39.23
2019-03-16T00:04:49.970Z,33.15
2019-03-16T00:07:32.567Z,37.17
2019-03-16T00:09:53.956Z,45.73
2019-03-16T00:12:24.600Z,41.08
2019-03-16T00:14:55.133Z,50.08
2019-03-16T00:17:25.889Z,55.70
2019-03-16T00:19:57.708Z,47.03
2019-03-16T00:22:28.396Z,50.73
2019-03-16T00:24:58.945Z,53.17
2019-03-16T00:27:29.691Z,58.75
2019-03-16T00:30:01.466Z,58.58
2019-03-16T00:32:32.325Z,64.85
2019-03-16T00:35:03.979Z,58.95
2019-03-16T00:37:34.648Z,60.58
2019-03-16T00:40:08.633Z,63.25
2019-03-16T00:42:39.302Z,65.00
2019-03-16T00:45:11.459Z,65.17
2019-03-16T00:47:42.193Z,64.07
2019-03-16T00:50:14.699Z,68.35
2019-03-16T00:52:45.525Z,66.28
2019-03-16T00:55:16.159Z,64.37
2019-03-16T00:57:47.003Z,61.65
2019-03-16T01:00:18.052Z,58.78
2019-03-16T01:02:48.917Z,67.37
2019-03-16T01:05:20.366Z,69.53
2019-03-16T01:07:51.111Z,70.52
2019-03-16T01:10:21.773Z,70.37
2019-03-16T01:12:52.560Z,71.25
2019-03-16T01:15:23.091Z,69.32
2019-03-16T01:17:53.834Z,69.75
2019-03-16T01:20:23.931Z,80.35
2019-03-16T01:22:54.707Z,99.87
2019-03-16T01:25:25.344Z,89.30
2019-03-16T01:27:55.513Z,90.83
2019-03-16T01:30:26.144Z,80.22
2019-03-16T01:32:56.227Z,76.87
2019-03-16T01:35:26.768Z,73.47
2019-03-16T01:37:57.410Z,71.90
2019-03-16T01:40:27.949Z,75.70
2019-03-16T01:42:58.583Z,128.60
2019-03-16T01:45:29.247Z,87.82
2019-03-16T01:47:59.898Z,90.15
2019-03-16T01:50:29.949Z,72.82
2019-03-16T01:53:00.080Z,73.75
2019-03-16T01:55:30.063Z,74.15
2019-03-16T01:58:00.849Z,74.35
2019-03-16T02:00:31.492Z,74.03
2019-03-16T02:03:02.253Z,71.47
2019-03-16T02:05:33.855Z,71.25
2019-03-16T02:08:03.934Z,79.05
2019-03-16T02:10:34.499Z,78.67
2019-03-16T02:13:05.333Z,80.17
2019-03-16T02:15:35.882Z,93.35
2019-03-16T02:18:06.649Z,87.78
2019-03-16T02:20:37.309Z,88.72
2019-03-16T02:23:07.566Z,104.65
2019-03-16T02:25:38.300Z,91.95
2019-03-16T02:28:08.934Z,86.28
2019-03-16T02:30:38.912Z,86.08
2019-03-16T02:33:13.363Z,94.22
2019-03-16T02:35:41.836Z,89.77
2019-03-16T02:38:12.927Z,82.60
2019-03-16T02:40:43.562Z,80.25
2019-03-16T02:43:14.333Z,76.90
2019-03-16T02:45:45.079Z,76.82
2019-03-16T02:48:17.120Z,77.53
2019-03-16T02:50:47.176Z,80.83
2019-03-16T02:53:17.892Z,75.30
2019-03-16T02:55:48.643Z,70.78
2019-03-16T02:58:20.395Z,77.03
2019-03-16T03:00:51.045Z,78.22
2019-03-16T03:03:29.114Z,79.67
2019-03-16T03:05:53.754Z,78.62
2019-03-16T03:08:25.448Z,74.35
2019-03-16T03:10:56.106Z,81.87
2019-03-16T03:13:26.885Z,76.57
2019-03-16T03:15:57.547Z,74.07
2019-03-16T03:18:29.315Z,83.75
2019-03-16T03:20:59.961Z,67.22
2019-03-16T03:23:30.757Z,65.85
2019-03-16T03:26:01.314Z,68.95
2019-03-16T03:28:35.249Z,67.58
2019-03-16T03:31:05.425Z,76.40
2019-03-16T03:33:57.246Z,69.32
2019-03-16T03:36:08.368Z,70.72
2019-03-16T03:38:40.182Z,74.47
2019-03-16T03:41:10.844Z,76.02
2019-03-16T03:43:41.613Z,74.70
2019-03-16T03:46:12.401Z,74.42
2019-03-16T03:48:44.163Z,75.95
2019-03-16T03:51:14.365Z,78.25
2019-03-16T03:53:45.186Z,77.85
2019-03-16T03:56:15.732Z,78.72
2019-03-16T03:58:47.378Z,72.32
2019-03-16T04:01:17.462Z,70.12
2019-03-16T04:03:47.753Z,64.50
2019-03-16T04:06:18.516Z,72.58
2019-03-16T04:08:49.701Z,68.22
2019-03-16T04:11:19.765Z,64.87
2019-03-16T04:13:50.492Z,70.97
2019-03-16T04:16:22.145Z,70.57
2019-03-16T04:18:54.375Z,65.32
2019-03-16T04:21:25.033Z,63.23
2019-03-16T04:23:55.745Z,63.90
2019-03-16T04:26:25.725Z,59.40
2019-03-16T04:28:56.893Z,67.70
2019-03-16T04:31:26.868Z,59.93
2019-03-16T04:33:57.618Z,58.20
2019-03-16T04:36:32.664Z,62.95
2019-03-16T04:39:07.400Z,65.90
2019-03-16T04:41:38.072Z,59.15
2019-03-16T04:44:08.742Z,59.15
2019-03-16T04:46:40.467Z,67.15
2019-03-16T04:49:10.780Z,60.05
2019-03-16T04:51:41.338Z,56.85
2019-03-16T04:54:12.155Z,65.05
2019-03-16T04:56:42.795Z,60.35
2019-03-16T04:59:13.519Z,63.38
2019-03-16T05:01:44.177Z,65.20
2019-03-16T05:04:14.342Z,58.73
2019-03-16T05:06:45.219Z,59.97
2019-03-16T05:09:16.003Z,56.37
2019-03-16T05:11:46.544Z,62.00
2019-03-16T05:14:16.611Z,61.70
2019-03-16T05:16:47.250Z,60.60
2019-03-16T05:19:18.390Z,84.23
2019-03-16T05:21:49.008Z,99.10
2019-03-16T05:24:19.730Z,83.30
2019-03-16T05:26:50.357Z,66.20
2019-03-16T05:29:20.516Z,59.47
2019-03-16T05:31:51.675Z,69.47
2019-03-16T05:34:22.376Z,71.90
2019-03-16T05:36:55.917Z,61.60
2019-03-16T05:39:26.728Z,61.37
2019-03-16T05:41:56.800Z,64.00
2019-03-16T05:44:27.575Z,60.23
2019-03-16T05:46:58.408Z,58.02
2019-03-16T05:49:30.173Z,53.48
2019-03-16T05:52:00.822Z,57.38
2019-03-16T05:54:31.651Z,51.13
2019-03-16T05:57:01.688Z,57.03
2019-03-16T05:59:33.434Z,53.75
2019-03-16T06:02:03.972Z,57.15
2019-03-16T06:04:34.629Z,52.70
2019-03-16T06:07:05.611Z,46.73
2019-03-16T06:09:37.825Z,48.50
2019-03-16T06:12:07.904Z,46.70
2019-03-16T06:14:38.638Z,45.20
2019-03-16T06:17:09.175Z,45.17
2019-03-16T06:19:40.873Z,54.80
2019-03-16T06:22:10.834Z,51.08
2019-03-16T06:24:41.539Z,45.90
2019-03-16T06:27:12.214Z,43.92
2019-03-16T06:29:43.990Z,48.42
2019-03-16T06:32:14.541Z,43.60
2019-03-16T06:34:45.290Z,41.88
2019-03-16T06:37:15.930Z,40.98
2019-03-16T06:39:47.646Z,44.13
2019-03-16T06:42:18.189Z,45.95
2019-03-16T06:44:48.840Z,43.23
2019-03-16T06:47:19.385Z,36.00
2019-03-16T06:49:51.083Z,34.65
2019-03-16T06:52:21.782Z,35.83
2019-03-16T06:54:52.738Z,39.88
2019-03-16T06:57:23.359Z,34.08
2019-03-16T06:59:55.168Z,32.63
2019-03-16T07:02:25.724Z,30.88
2019-03-16T07:04:56.486Z,32.25
2019-03-16T07:07:28.072Z,32.00
2019-03-16T07:10:00.863Z,34.20
2019-03-16T07:12:34.537Z,30.15
2019-03-16T07:15:04.114Z,31.87
2019-03-16T07:17:34.737Z,25.37
2019-03-16T07:20:08.651Z,31.48
2019-03-16T07:22:39.331Z,30.12
2019-03-16T07:25:10.355Z,25.05
2019-03-16T07:27:41.101Z,30.65
2019-03-16T07:30:15.068Z,32.28
2019-03-16T07:32:45.686Z,30.02
2019-03-16T07:35:16.418Z,28.23
2019-03-16T07:37:47.078Z,35.20
2019-03-16T07:40:17.837Z,29.87
2019-03-16T07:42:48.414Z,33.60
2019-03-16T07:45:19.218Z,32.53
2019-03-16T07:47:49.764Z,31.57
2019-03-16T07:50:20.436Z,30.90
2019-03-16T07:52:50.675Z,33.47
2019-03-16T07:55:21.113Z,28.43
2019-03-16T07:57:51.789Z,38.25
2019-03-16T08:00:22.222Z,24.80
2019-03-16T08:02:52.582Z,38.77
2019-03-16T08:05:23.042Z,36.50
2019-03-16T08:07:54.245Z,35.57
2019-03-16T08:10:25.002Z,38.63
2019-03-16T08:12:55.330Z,41.43
2019-03-16T08:15:28.082Z,37.20
2019-03-16T08:17:57.764Z,32.57
2019-03-16T08:20:31.272Z,30.20
2019-03-16T08:23:00.068Z,29.50
2019-03-16T08:25:30.565Z,37.23
2019-03-16T08:28:00.915Z,29.80
2019-03-16T08:30:31.265Z,35.70
2019-03-16T08:33:01.624Z,45.57
2019-03-16T08:35:32.144Z,42.03
2019-03-16T08:38:02.421Z,38.93
2019-03-16T08:40:32.858Z,43.53
2019-03-16T08:43:03.401Z,45.28
2019-03-16T08:45:33.960Z,48.47
2019-03-16T08:48:04.703Z,41.70
2019-03-16T08:50:35.158Z,47.03
2019-03-16T08:53:05.495Z,50.17
2019-03-16T08:55:36.206Z,39.27
2019-03-16T08:58:06.843Z,43.42
2019-03-16T09:00:37.535Z,57.45
2019-03-16T09:03:07.863Z,49.07
2019-03-16T09:05:38.623Z,43.28
2019-03-16T09:08:11.239Z,39.33
2019-03-16T09:10:41.977Z,59.38
2019-03-16T09:13:13.302Z,49.47
2019-03-16T09:15:43.643Z,99.70
2019-03-16T09:18:14.997Z,46.13
2019-03-16T09:20:45.744Z,59.08
2019-03-16T09:23:15.986Z,170.43
2019-03-16T09:25:46.805Z,36.58
2019-03-16T09:28:18.887Z,41.20
2019-03-16T09:30:49.256Z,33.60
2019-03-16T09:33:19.700Z,29.33
2019-03-16T09:35:50.159Z,33.80
2019-03-16T09:38:20.895Z,37.98
2019-03-16T09:40:51.683Z,39.35
2019-03-16T09:43:22.253Z,33.07
2019-03-16T09:45:52.937Z,34.73
2019-03-16T09:48:24.755Z,36.85
2019-03-16T09:50:55.134Z,30.37
2019-03-16T09:53:25.409Z,35.07
2019-03-16T09:55:55.969Z,31.70
2019-03-16T09:58:31.523Z,31.82
2019-03-16T10:00:59.941Z,36.73
2019-03-16T10:03:30.505Z,44.03
2019-03-16T10:06:01.277Z,32.20
2019-03-16T10:08:33.991Z,31.85
2019-03-16T10:11:04.721Z,30.95
2019-03-16T10:13:35.348Z,37.48
2019-03-16T10:16:06.014Z,40.08
2019-03-16T10:18:37.680Z,40.03
2019-03-16T10:21:08.421Z,46.25
2019-03-16T10:23:39.374Z,41.80
2019-03-16T10:26:10.116Z,44.38
2019-03-16T10:28:43.895Z,42.38
2019-03-16T10:31:14.117Z,48.10
2019-03-16T10:33:45.760Z,44.93
2019-03-16T10:36:16.501Z,47.85
2019-03-16T10:38:49.208Z,41.13
2019-03-16T10:41:19.958Z,45.12
2019-03-16T10:43:50.509Z,44.27
2019-03-16T10:46:21.276Z,49.80
2019-03-16T10:48:53.039Z,38.95
2019-03-16T10:51:23.938Z,39.15
2019-03-16T10:53:57.587Z,37.23
2019-03-16T10:56:28.502Z,39.88
2019-03-16T10:59:00.107Z,39.75
2019-03-16T11:01:30.981Z,37.20
2019-03-16T11:04:01.612Z,41.02
2019-03-16T11:06:32.293Z,37.50
2019-03-16T11:09:06.981Z,35.52
2019-03-16T11:11:37.716Z,34.30
2019-03-16T11:14:08.480Z,38.23
2019-03-16T11:16:39.140Z,34.85
2019-03-16T11:19:10.885Z,36.60
2019-03-16T11:21:41.627Z,38.38
2019-03-16T11:24:12.292Z,35.95
2019-03-16T11:26:43.115Z,38.35
2019-03-16T11:29:14.935Z,37.75
2019-03-16T11:31:45.584Z,40.10
2019-03-16T11:34:16.239Z,40.70
2019-03-16T11:36:46.990Z,35.90
2019-03-16T11:39:18.831Z,42.35
2019-03-16T11:41:49.600Z,51.48
2019-03-16T11:44:20.323Z,47.43
2019-03-16T11:46:50.981Z,44.58
2019-03-16T11:49:22.690Z,39.75
2019-03-16T11:51:53.551Z,37.53
2019-03-16T11:54:24.211Z,38.90
2019-03-16T11:56:54.903Z,40.92
2019-03-16T11:59:25.649Z,44.95
2019-03-16T12:02:04.912Z,40.25
2019-03-16T12:04:28.496Z,39.33
2019-03-16T12:06:59.237Z,38.45
2019-03-16T12:09:30.759Z,38.42
2019-03-16T12:12:01.498Z,36.50
2019-03-16T12:14:32.141Z,29.23
2019-03-16T12:17:02.890Z,33.35
2019-03-16T12:19:33.462Z,30.30
2019-03-16T12:22:04.220Z,33.33
2019-03-16T12:24:34.860Z,33.42
2019-03-16T12:27:05.676Z,29.75
2019-03-16T12:29:36.344Z,30.50
2019-03-16T12:32:07.090Z,32.28
2019-03-16T12:34:37.881Z,27.70
2019-03-16T12:37:08.571Z,27.73
2019-03-16T12:39:39.314Z,21.55
2019-03-16T12:42:09.962Z,21.15
2019-03-16T12:44:40.604Z,23.90
2019-03-16T12:47:11.257Z,22.07
2019-03-16T12:49:41.878Z,22.25
2019-03-16T12:52:12.519Z,23.00
2019-03-16T12:54:43.076Z,17.87
2019-03-16T12:57:13.882Z,18.87
2019-03-16T12:59:47.066Z,19.15
2019-03-16T13:02:16.814Z,20.45
2019-03-16T13:04:47.459Z,18.50
2019-03-16T13:07:18.208Z,22.40
2019-03-16T13:09:49.858Z,18.57
2019-03-16T13:12:20.561Z,18.27
2019-03-16T13:14:51.087Z,21.17
2019-03-16T13:17:21.756Z,14.47
2019-03-16T13:19:52.601Z,36.30
